sensor_id;sensor_type;location;lat;lon;timestamp;P1;durP1;ratioP1;P2;durP2;ratioP2
47713;SDS011;33475;46.614;13.888;2023-07-16T00:00:58;6.50;;;3.22;;
47713;SDS011;33475;46.614;13.888;2023-07-16T00:03:24;6.40;;;3.00;;
47713;SDS011;33475;46.614;13.888;2023-07-16T00:05:50;3.65;;;2.97;;
47713;SDS011;33475;46.614;13.888;2023-07-16T00:08:17;9.13;;;4.75;;
47713;SDS011;33475;46.614;13.888;2023-07-16T00:10:43;5.30;;;3.20;;
47713;SDS011;33475;46.614;13.888;2023-07-16T00:13:09;4.97;;;3.33;;
47713;SDS011;33475;46.614;13.888;2023-07-16T00:15:35;4.13;;;3.72;;
47713;SDS011;33475;46.614;13.888;2023-07-16T00:18:01;5.45;;;3.08;;
47713;SDS011;33475;46.614;13.888;2023-07-16T00:20:28;5.95;;;2.97;;
47713;SDS011;33475;46.614;13.888;2023-07-16T00:22:54;3.25;;;2.95;;
47713;SDS011;33475;46.614;13.888;2023-07-16T00:25:22;5.05;;;2.70;;
47713;SDS011;33475;46.614;13.888;2023-07-16T00:27:48;3.53;;;3.17;;
47713;SDS011;33475;46.614;13.888;2023-07-16T00:30:14;3.40;;;2.80;;
47713;SDS011;33475;46.614;13.888;2023-07-16T00:32:40;4.15;;;3.08;;
47713;SDS011;33475;46.614;13.888;2023-07-16T00:35:07;5.28;;;2.80;;
47713;SDS011;33475;46.614;13.888;2023-07-16T00:37:33;3.53;;;3.22;;
47713;SDS011;33475;46.614;13.888;2023-07-16T00:40:00;3.30;;;2.88;;
47713;SDS011;33475;46.614;13.888;2023-07-16T00:42:26;5.22;;;3.05;;
47713;SDS011;33475;46.614;13.888;2023-07-16T00:44:52;5.13;;;2.92;;
47713;SDS011;33475;46.614;13.888;2023-07-16T00:47:18;3.65;;;2.92;;
47713;SDS011;33475;46.614;13.888;2023-07-16T00:49:45;5.30;;;3.00;;
47713;SDS011;33475;46.614;13.888;2023-07-16T00:52:11;4.38;;;3.00;;
47713;SDS011;33475;46.614;13.888;2023-07-16T00:54:40;7.00;;;3.00;;
47713;SDS011;33475;46.614;13.888;2023-07-16T00:57:06;5.97;;;2.78;;
47713;SDS011;33475;46.614;13.888;2023-07-16T00:59:33;3.40;;;2.92;;
47713;SDS011;33475;46.614;13.888;2023-07-16T01:01:59;8.27;;;2.80;;
47713;SDS011;33475;46.614;13.888;2023-07-16T01:04:25;6.10;;;3.20;;
47713;SDS011;33475;46.614;13.888;2023-07-16T01:06:52;3.60;;;2.45;;
47713;SDS011;33475;46.614;13.888;2023-07-16T01:09:19;8.60;;;2.70;;
47713;SDS011;33475;46.614;13.888;2023-07-16T01:11:46;4.30;;;2.80;;
47713;SDS011;33475;46.614;13.888;2023-07-16T01:14:13;4.70;;;2.80;;
47713;SDS011;33475;46.614;13.888;2023-07-16T01:16:40;3.45;;;3.20;;
47713;SDS011;33475;46.614;13.888;2023-07-16T01:19:07;3.60;;;2.58;;
47713;SDS011;33475;46.614;13.888;2023-07-16T01:21:34;3.50;;;3.05;;
47713;SDS011;33475;46.614;13.888;2023-07-16T01:26:47;4.25;;;2.70;;
47713;SDS011;33475;46.614;13.888;2023-07-16T01:29:28;3.08;;;2.42;;
47713;SDS011;33475;46.614;13.888;2023-07-16T01:31:55;2.80;;;2.60;;
47713;SDS011;33475;46.614;13.888;2023-07-16T01:34:22;2.90;;;2.55;;
47713;SDS011;33475;46.614;13.888;2023-07-16T01:36:49;3.67;;;2.90;;
47713;SDS011;33475;46.614;13.888;2023-07-16T01:39:15;5.95;;;3.30;;
47713;SDS011;33475;46.614;13.888;2023-07-16T01:41:42;4.47;;;3.00;;
47713;SDS011;33475;46.614;13.888;2023-07-16T01:44:08;3.45;;;3.13;;
47713;SDS011;33475;46.614;13.888;2023-07-16T01:46:34;3.78;;;2.97;;
47713;SDS011;33475;46.614;13.888;2023-07-16T01:49:00;4.97;;;2.95;;
47713;SDS011;33475;46.614;13.888;2023-07-16T01:51:27;6.03;;;3.15;;
47713;SDS011;33475;46.614;13.888;2023-07-16T01:53:53;9.32;;;2.72;;
47713;SDS011;33475;46.614;13.888;2023-07-16T01:56:19;3.08;;;2.88;;
47713;SDS011;33475;46.614;13.888;2023-07-16T01:58:45;6.25;;;2.65;;
47713;SDS011;33475;46.614;13.888;2023-07-16T02:01:11;3.03;;;2.80;;
47713;SDS011;33475;46.614;13.888;2023-07-16T02:03:37;5.72;;;3.20;;
47713;SDS011;33475;46.614;13.888;2023-07-16T02:06:03;4.97;;;3.00;;
47713;SDS011;33475;46.614;13.888;2023-07-16T02:08:29;4.10;;;2.80;;
47713;SDS011;33475;46.614;13.888;2023-07-16T02:10:56;3.88;;;2.80;;
47713;SDS011;33475;46.614;13.888;2023-07-16T02:13:22;3.35;;;3.08;;
47713;SDS011;33475;46.614;13.888;2023-07-16T02:15:48;3.90;;;3.40;;
47713;SDS011;33475;46.614;13.888;2023-07-16T02:18:14;5.95;;;3.00;;
47713;SDS011;33475;46.614;13.888;2023-07-16T02:20:40;5.40;;;3.03;;
47713;SDS011;33475;46.614;13.888;2023-07-16T02:23:06;4.45;;;3.30;;
47713;SDS011;33475;46.614;13.888;2023-07-16T02:25:32;9.95;;;3.10;;
47713;SDS011;33475;46.614;13.888;2023-07-16T02:27:58;3.42;;;3.13;;
47713;SDS011;33475;46.614;13.888;2023-07-16T02:30:25;5.85;;;3.13;;
47713;SDS011;33475;46.614;13.888;2023-07-16T02:32:51;3.33;;;3.00;;
47713;SDS011;33475;46.614;13.888;2023-07-16T02:35:17;8.15;;;3.00;;
47713;SDS011;33475;46.614;13.888;2023-07-16T02:37:43;3.70;;;2.67;;
47713;SDS011;33475;46.614;13.888;2023-07-16T02:40:09;3.75;;;2.83;;
47713;SDS011;33475;46.614;13.888;2023-07-16T02:42:35;4.60;;;3.03;;
47713;SDS011;33475;46.614;13.888;2023-07-16T02:45:02;3.08;;;2.88;;
47713;SDS011;33475;46.614;13.888;2023-07-16T02:47:28;5.47;;;3.05;;
47713;SDS011;33475;46.614;13.888;2023-07-16T02:49:54;3.70;;;3.40;;
47713;SDS011;33475;46.614;13.888;2023-07-16T02:52:20;3.75;;;2.72;;
47713;SDS011;33475;46.614;13.888;2023-07-16T02:54:46;3.00;;;2.55;;
47713;SDS011;33475;46.614;13.888;2023-07-16T02:57:12;3.83;;;2.60;;
47713;SDS011;33475;46.614;13.888;2023-07-16T02:59:38;4.07;;;3.40;;
47713;SDS011;33475;46.614;13.888;2023-07-16T03:02:04;5.95;;;2.88;;
47713;SDS011;33475;46.614;13.888;2023-07-16T03:04:31;2.97;;;2.60;;
47713;SDS011;33475;46.614;13.888;2023-07-16T03:06:57;6.78;;;2.63;;
47713;SDS011;33475;46.614;13.888;2023-07-16T03:09:23;3.33;;;3.00;;
47713;SDS011;33475;46.614;13.888;2023-07-16T03:11:49;2.72;;;2.53;;
47713;SDS011;33475;46.614;13.888;2023-07-16T03:14:16;4.85;;;2.92;;
47713;SDS011;33475;46.614;13.888;2023-07-16T03:16:42;3.97;;;3.10;;
47713;SDS011;33475;46.614;13.888;2023-07-16T03:19:08;4.45;;;3.20;;
47713;SDS011;33475;46.614;13.888;2023-07-16T03:21:34;3.70;;;2.90;;
47713;SDS011;33475;46.614;13.888;2023-07-16T03:24:00;4.57;;;2.90;;
47713;SDS011;33475;46.614;13.888;2023-07-16T03:26:27;3.00;;;2.70;;
47713;SDS011;33475;46.614;13.888;2023-07-16T03:28:53;6.38;;;2.92;;
47713;SDS011;33475;46.614;13.888;2023-07-16T03:31:20;4.20;;;2.70;;
47713;SDS011;33475;46.614;13.888;2023-07-16T03:33:46;3.67;;;2.88;;
47713;SDS011;33475;46.614;13.888;2023-07-16T03:36:12;3.20;;;2.75;;
47713;SDS011;33475;46.614;13.888;2023-07-16T03:38:38;5.13;;;2.90;;
47713;SDS011;33475;46.614;13.888;2023-07-16T03:41:05;3.05;;;2.30;;
47713;SDS011;33475;46.614;13.888;2023-07-16T03:43:31;3.25;;;2.47;;
47713;SDS011;33475;46.614;13.888;2023-07-16T03:45:57;4.22;;;2.40;;
47713;SDS011;33475;46.614;13.888;2023-07-16T03:48:23;4.78;;;2.63;;
47713;SDS011;33475;46.614;13.888;2023-07-16T03:50:49;3.10;;;2.90;;
47713;SDS011;33475;46.614;13.888;2023-07-16T03:53:15;5.47;;;2.85;;
47713;SDS011;33475;46.614;13.888;2023-07-16T03:55:41;3.70;;;2.65;;
47713;SDS011;33475;46.614;13.888;2023-07-16T03:58:07;4.28;;;2.67;;
47713;SDS011;33475;46.614;13.888;2023-07-16T04:00:34;5.63;;;2.60;;
47713;SDS011;33475;46.614;13.888;2023-07-16T04:03:00;3.15;;;2.83;;
47713;SDS011;33475;46.614;13.888;2023-07-16T04:05:26;2.92;;;2.67;;
47713;SDS011;33475;46.614;13.888;2023-07-16T04:07:52;3.28;;;2.60;;
47713;SDS011;33475;46.614;13.888;2023-07-16T04:10:18;3.47;;;2.50;;
47713;SDS011;33475;46.614;13.888;2023-07-16T04:12:45;8.02;;;2.67;;
47713;SDS011;33475;46.614;13.888;2023-07-16T04:15:11;4.18;;;2.35;;
47713;SDS011;33475;46.614;13.888;2023-07-16T04:17:37;5.90;;;2.65;;
47713;SDS011;33475;46.614;13.888;2023-07-16T04:20:03;2.75;;;2.50;;
47713;SDS011;33475;46.614;13.888;2023-07-16T04:22:30;6.75;;;3.33;;
47713;SDS011;33475;46.614;13.888;2023-07-16T04:24:56;2.88;;;2.35;;
47713;SDS011;33475;46.614;13.888;2023-07-16T04:27:22;2.78;;;2.58;;
47713;SDS011;33475;46.614;13.888;2023-07-16T04:29:48;3.38;;;2.70;;
47713;SDS011;33475;46.614;13.888;2023-07-16T04:32:14;3.05;;;2.60;;
47713;SDS011;33475;46.614;13.888;2023-07-16T04:34:41;3.53;;;2.40;;
47713;SDS011;33475;46.614;13.888;2023-07-16T04:37:07;5.95;;;2.65;;
47713;SDS011;33475;46.614;13.888;2023-07-16T04:39:33;8.88;;;2.70;;
47713;SDS011;33475;46.614;13.888;2023-07-16T04:41:59;3.63;;;2.45;;
47713;SDS011;33475;46.614;13.888;2023-07-16T04:44:25;6.43;;;2.75;;
47713;SDS011;33475;46.614;13.888;2023-07-16T04:46:51;5.82;;;2.20;;
47713;SDS011;33475;46.614;13.888;2023-07-16T04:49:17;6.40;;;2.50;;
47713;SDS011;33475;46.614;13.888;2023-07-16T04:51:43;3.30;;;2.67;;
47713;SDS011;33475;46.614;13.888;2023-07-16T04:54:10;6.50;;;2.80;;
47713;SDS011;33475;46.614;13.888;2023-07-16T04:56:36;4.13;;;2.60;;
47713;SDS011;33475;46.614;13.888;2023-07-16T04:59:02;2.97;;;2.25;;
47713;SDS011;33475;46.614;13.888;2023-07-16T05:01:28;4.38;;;2.83;;
47713;SDS011;33475;46.614;13.888;2023-07-16T05:03:54;3.13;;;2.72;;
47713;SDS011;33475;46.614;13.888;2023-07-16T05:06:20;3.30;;;2.53;;
47713;SDS011;33475;46.614;13.888;2023-07-16T05:08:46;2.75;;;2.45;;
47713;SDS011;33475;46.614;13.888;2023-07-16T05:11:12;3.05;;;2.75;;
47713;SDS011;33475;46.614;13.888;2023-07-16T05:13:39;4.97;;;2.70;;
47713;SDS011;33475;46.614;13.888;2023-07-16T05:16:05;4.03;;;2.63;;
47713;SDS011;33475;46.614;13.888;2023-07-16T05:18:31;3.42;;;2.60;;
47713;SDS011;33475;46.614;13.888;2023-07-16T05:20:57;3.00;;;2.58;;
47713;SDS011;33475;46.614;13.888;2023-07-16T05:23:23;3.75;;;2.80;;
47713;SDS011;33475;46.614;13.888;2023-07-16T05:25:49;3.58;;;2.50;;
47713;SDS011;33475;46.614;13.888;2023-07-16T05:28:16;2.80;;;2.22;;
47713;SDS011;33475;46.614;13.888;2023-07-16T05:30:42;4.10;;;2.92;;
47713;SDS011;33475;46.614;13.888;2023-07-16T05:33:12;3.85;;;2.88;;
47713;SDS011;33475;46.614;13.888;2023-07-16T05:35:38;3.22;;;2.75;;
47713;SDS011;33475;46.614;13.888;2023-07-16T05:38:05;3.50;;;2.75;;
47713;SDS011;33475;46.614;13.888;2023-07-16T05:40:32;3.75;;;2.90;;
47713;SDS011;33475;46.614;13.888;2023-07-16T05:42:59;3.17;;;2.88;;
47713;SDS011;33475;46.614;13.888;2023-07-16T05:45:25;3.30;;;2.28;;
47713;SDS011;33475;46.614;13.888;2023-07-16T05:47:51;4.63;;;2.50;;
47713;SDS011;33475;46.614;13.888;2023-07-16T05:50:17;5.78;;;2.38;;
47713;SDS011;33475;46.614;13.888;2023-07-16T05:52:44;3.33;;;2.63;;
47713;SDS011;33475;46.614;13.888;2023-07-16T05:55:13;3.20;;;2.88;;
47713;SDS011;33475;46.614;13.888;2023-07-16T05:57:39;2.97;;;2.38;;
47713;SDS011;33475;46.614;13.888;2023-07-16T06:00:05;2.70;;;2.42;;
47713;SDS011;33475;46.614;13.888;2023-07-16T06:02:34;7.10;;;2.63;;
47713;SDS011;33475;46.614;13.888;2023-07-16T06:05:00;3.53;;;2.33;;
47713;SDS011;33475;46.614;13.888;2023-07-16T06:07:26;7.28;;;3.17;;
47713;SDS011;33475;46.614;13.888;2023-07-16T06:09:52;4.07;;;3.08;;
47713;SDS011;33475;46.614;13.888;2023-07-16T06:12:18;3.25;;;2.47;;
47713;SDS011;33475;46.614;13.888;2023-07-16T06:14:45;2.40;;;2.20;;
47713;SDS011;33475;46.614;13.888;2023-07-16T06:17:11;3.25;;;2.30;;
47713;SDS011;33475;46.614;13.888;2023-07-16T06:19:38;9.45;;;2.38;;
47713;SDS011;33475;46.614;13.888;2023-07-16T06:22:04;4.72;;;2.40;;
47713;SDS011;33475;46.614;13.888;2023-07-16T06:24:30;4.03;;;2.30;;
47713;SDS011;33475;46.614;13.888;2023-07-16T06:26:56;3.05;;;2.45;;
47713;SDS011;33475;46.614;13.888;2023-07-16T06:29:23;3.42;;;2.53;;
47713;SDS011;33475;46.614;13.888;2023-07-16T06:31:55;3.10;;;2.03;;
47713;SDS011;33475;46.614;13.888;2023-07-16T06:34:22;4.68;;;2.20;;
47713;SDS011;33475;46.614;13.888;2023-07-16T06:36:48;2.75;;;2.10;;
47713;SDS011;33475;46.614;13.888;2023-07-16T06:39:14;2.67;;;2.45;;
47713;SDS011;33475;46.614;13.888;2023-07-16T06:41:41;2.60;;;2.30;;
47713;SDS011;33475;46.614;13.888;2023-07-16T06:44:07;2.47;;;2.05;;
47713;SDS011;33475;46.614;13.888;2023-07-16T06:46:33;4.22;;;3.28;;
47713;SDS011;33475;46.614;13.888;2023-07-16T06:48:59;6.63;;;2.90;;
47713;SDS011;33475;46.614;13.888;2023-07-16T06:51:26;2.75;;;2.25;;
47713;SDS011;33475;46.614;13.888;2023-07-16T06:53:54;3.60;;;2.40;;
47713;SDS011;33475;46.614;13.888;2023-07-16T06:56:20;3.08;;;2.50;;
47713;SDS011;33475;46.614;13.888;2023-07-16T06:58:46;2.08;;;1.85;;
47713;SDS011;33475;46.614;13.888;2023-07-16T07:01:12;4.25;;;2.40;;
47713;SDS011;33475;46.614;13.888;2023-07-16T07:03:39;6.47;;;2.10;;
47713;SDS011;33475;46.614;13.888;2023-07-16T07:06:05;2.22;;;2.00;;
47713;SDS011;33475;46.614;13.888;2023-07-16T07:08:31;3.15;;;2.42;;
47713;SDS011;33475;46.614;13.888;2023-07-16T07:10:57;3.55;;;2.28;;
47713;SDS011;33475;46.614;13.888;2023-07-16T07:13:24;2.90;;;2.13;;
47713;SDS011;33475;46.614;13.888;2023-07-16T07:15:50;4.13;;;2.70;;
47713;SDS011;33475;46.614;13.888;2023-07-16T07:18:17;2.70;;;2.45;;
47713;SDS011;33475;46.614;13.888;2023-07-16T07:20:43;2.55;;;2.10;;
47713;SDS011;33475;46.614;13.888;2023-07-16T07:23:09;4.68;;;2.30;;
47713;SDS011;33475;46.614;13.888;2023-07-16T07:25:36;2.88;;;2.30;;
47713;SDS011;33475;46.614;13.888;2023-07-16T07:28:02;3.33;;;2.67;;
47713;SDS011;33475;46.614;13.888;2023-07-16T07:30:28;3.30;;;2.45;;
47713;SDS011;33475;46.614;13.888;2023-07-16T07:32:54;5.43;;;3.05;;
47713;SDS011;33475;46.614;13.888;2023-07-16T07:35:21;2.55;;;2.30;;
47713;SDS011;33475;46.614;13.888;2023-07-16T07:37:47;2.67;;;2.03;;
47713;SDS011;33475;46.614;13.888;2023-07-16T07:40:13;2.20;;;2.00;;
47713;SDS011;33475;46.614;13.888;2023-07-16T07:42:39;6.85;;;2.35;;
47713;SDS011;33475;46.614;13.888;2023-07-16T07:45:06;2.72;;;2.38;;
47713;SDS011;33475;46.614;13.888;2023-07-16T07:47:32;2.95;;;2.17;;
47713;SDS011;33475;46.614;13.888;2023-07-16T07:49:58;2.97;;;2.67;;
47713;SDS011;33475;46.614;13.888;2023-07-16T07:52:26;1.95;;;1.85;;
47713;SDS011;33475;46.614;13.888;2023-07-16T07:54:53;2.35;;;2.10;;
47713;SDS011;33475;46.614;13.888;2023-07-16T07:57:19;4.18;;;2.00;;
47713;SDS011;33475;46.614;13.888;2023-07-16T07:59:46;2.33;;;2.13;;
47713;SDS011;33475;46.614;13.888;2023-07-16T08:02:12;7.50;;;2.10;;
47713;SDS011;33475;46.614;13.888;2023-07-16T08:04:38;6.95;;;2.30;;
47713;SDS011;33475;46.614;13.888;2023-07-16T08:07:05;5.35;;;2.10;;
47713;SDS011;33475;46.614;13.888;2023-07-16T08:09:31;2.45;;;2.22;;
47713;SDS011;33475;46.614;13.888;2023-07-16T08:11:57;2.75;;;2.45;;
47713;SDS011;33475;46.614;13.888;2023-07-16T08:14:23;2.65;;;2.30;;
47713;SDS011;33475;46.614;13.888;2023-07-16T08:16:49;2.75;;;2.35;;
47713;SDS011;33475;46.614;13.888;2023-07-16T08:19:15;2.95;;;2.15;;
47713;SDS011;33475;46.614;13.888;2023-07-16T08:21:43;2.70;;;2.30;;
47713;SDS011;33475;46.614;13.888;2023-07-16T08:24:10;2.65;;;2.45;;
47713;SDS011;33475;46.614;13.888;2023-07-16T08:26:36;7.45;;;2.20;;
47713;SDS011;33475;46.614;13.888;2023-07-16T08:29:02;3.35;;;2.25;;
47713;SDS011;33475;46.614;13.888;2023-07-16T08:31:28;4.32;;;2.28;;
47713;SDS011;33475;46.614;13.888;2023-07-16T08:33:55;3.03;;;2.75;;
47713;SDS011;33475;46.614;13.888;2023-07-16T08:36:21;2.25;;;1.92;;
47713;SDS011;33475;46.614;13.888;2023-07-16T08:38:48;2.40;;;2.10;;
47713;SDS011;33475;46.614;13.888;2023-07-16T08:41:14;2.95;;;1.98;;
47713;SDS011;33475;46.614;13.888;2023-07-16T08:43:40;3.42;;;2.47;;
47713;SDS011;33475;46.614;13.888;2023-07-16T08:46:07;2.97;;;2.40;;
47713;SDS011;33475;46.614;13.888;2023-07-16T08:48:34;5.78;;;2.10;;
47713;SDS011;33475;46.614;13.888;2023-07-16T08:51:01;4.50;;;2.58;;
47713;SDS011;33475;46.614;13.888;2023-07-16T08:53:29;3.03;;;2.10;;
47713;SDS011;33475;46.614;13.888;2023-07-16T08:55:55;2.42;;;2.20;;
47713;SDS011;33475;46.614;13.888;2023-07-16T08:58:25;4.30;;;2.40;;
47713;SDS011;33475;46.614;13.888;2023-07-16T09:00:52;7.93;;;2.58;;
47713;SDS011;33475;46.614;13.888;2023-07-16T09:03:18;3.08;;;2.38;;
47713;SDS011;33475;46.614;13.888;2023-07-16T09:05:45;2.60;;;2.10;;
47713;SDS011;33475;46.614;13.888;2023-07-16T09:08:11;2.33;;;2.13;;
47713;SDS011;33475;46.614;13.888;2023-07-16T09:10:40;2.17;;;1.98;;
47713;SDS011;33475;46.614;13.888;2023-07-16T09:13:06;2.20;;;2.00;;
47713;SDS011;33475;46.614;13.888;2023-07-16T09:15:32;2.30;;;2.10;;
47713;SDS011;33475;46.614;13.888;2023-07-16T09:18:03;3.88;;;1.95;;
47713;SDS011;33475;46.614;13.888;2023-07-16T09:20:30;2.00;;;1.80;;
47713;SDS011;33475;46.614;13.888;2023-07-16T09:22:56;2.60;;;1.85;;
47713;SDS011;33475;46.614;13.888;2023-07-16T09:25:29;2.13;;;1.92;;
47713;SDS011;33475;46.614;13.888;2023-07-16T09:27:57;2.15;;;1.95;;
47713;SDS011;33475;46.614;13.888;2023-07-16T09:30:23;4.15;;;2.15;;
47713;SDS011;33475;46.614;13.888;2023-07-16T09:32:50;2.90;;;1.98;;
47713;SDS011;33475;46.614;13.888;2023-07-16T09:35:16;2.50;;;1.95;;
47713;SDS011;33475;46.614;13.888;2023-07-16T09:37:43;3.30;;;2.30;;
47713;SDS011;33475;46.614;13.888;2023-07-16T09:40:10;2.85;;;2.05;;
47713;SDS011;33475;46.614;13.888;2023-07-16T09:42:37;2.80;;;2.10;;
47713;SDS011;33475;46.614;13.888;2023-07-16T09:45:07;3.40;;;2.08;;
47713;SDS011;33475;46.614;13.888;2023-07-16T09:47:34;2.25;;;2.05;;
47713;SDS011;33475;46.614;13.888;2023-07-16T09:50:02;2.88;;;1.90;;
47713;SDS011;33475;46.614;13.888;2023-07-16T09:52:29;3.72;;;2.10;;
47713;SDS011;33475;46.614;13.888;2023-07-16T09:54:57;3.75;;;2.03;;
47713;SDS011;33475;46.614;13.888;2023-07-16T09:57:25;2.25;;;2.05;;
47713;SDS011;33475;46.614;13.888;2023-07-16T09:59:52;2.28;;;1.85;;
47713;SDS011;33475;46.614;13.888;2023-07-16T10:02:20;4.72;;;1.85;;
47713;SDS011;33475;46.614;13.888;2023-07-16T10:04:46;3.15;;;2.10;;
47713;SDS011;33475;46.614;13.888;2023-07-16T10:07:19;3.78;;;2.05;;
47713;SDS011;33475;46.614;13.888;2023-07-16T10:09:53;3.92;;;1.90;;
47713;SDS011;33475;46.614;13.888;2023-07-16T10:12:22;2.40;;;2.17;;
47713;SDS011;33475;46.614;13.888;2023-07-16T10:14:52;4.38;;;2.20;;
47713;SDS011;33475;46.614;13.888;2023-07-16T10:17:25;5.00;;;2.88;;
47713;SDS011;33475;46.614;13.888;2023-07-16T10:19:55;3.63;;;1.95;;
47713;SDS011;33475;46.614;13.888;2023-07-16T10:22:36;2.40;;;2.17;;
47713;SDS011;33475;46.614;13.888;2023-07-16T10:25:03;2.50;;;2.30;;
47713;SDS011;33475;46.614;13.888;2023-07-16T10:27:33;2.95;;;2.55;;
47713;SDS011;33475;46.614;13.888;2023-07-16T10:30:00;5.63;;;1.98;;
47713;SDS011;33475;46.614;13.888;2023-07-16T10:32:32;3.45;;;2.17;;
47713;SDS011;33475;46.614;13.888;2023-07-16T10:34:58;1.92;;;1.83;;
47713;SDS011;33475;46.614;13.888;2023-07-16T10:37:25;3.55;;;2.30;;
47713;SDS011;33475;46.614;13.888;2023-07-16T10:39:52;2.95;;;2.13;;
47713;SDS011;33475;46.614;13.888;2023-07-16T10:42:19;3.05;;;2.00;;
47713;SDS011;33475;46.614;13.888;2023-07-16T10:44:48;3.42;;;1.92;;
47713;SDS011;33475;46.614;13.888;2023-07-16T10:47:19;2.70;;;1.98;;
47713;SDS011;33475;46.614;13.888;2023-07-16T10:49:46;3.83;;;1.70;;
47713;SDS011;33475;46.614;13.888;2023-07-16T10:52:13;1.90;;;1.80;;
47713;SDS011;33475;46.614;13.888;2023-07-16T10:54:42;6.40;;;2.10;;
47713;SDS011;33475;46.614;13.888;2023-07-16T10:57:08;4.53;;;1.73;;
47713;SDS011;33475;46.614;13.888;2023-07-16T10:59:36;4.45;;;1.92;;
47713;SDS011;33475;46.614;13.888;2023-07-16T11:02:03;5.32;;;2.33;;
47713;SDS011;33475;46.614;13.888;2023-07-16T11:04:34;2.00;;;1.83;;
47713;SDS011;33475;46.614;13.888;2023-07-16T11:07:08;2.55;;;1.90;;
47713;SDS011;33475;46.614;13.888;2023-07-16T11:09:40;1.77;;;1.67;;
47713;SDS011;33475;46.614;13.888;2023-07-16T11:12:11;2.25;;;1.77;;
47713;SDS011;33475;46.614;13.888;2023-07-16T11:14:42;1.58;;;1.48;;
47713;SDS011;33475;46.614;13.888;2023-07-16T11:17:09;2.38;;;1.80;;
47713;SDS011;33475;46.614;13.888;2023-07-16T11:19:36;5.18;;;2.15;;
47713;SDS011;33475;46.614;13.888;2023-07-16T11:22:04;2.42;;;1.92;;
47713;SDS011;33475;46.614;13.888;2023-07-16T11:24:41;2.90;;;1.70;;
47713;SDS011;33475;46.614;13.888;2023-07-16T11:27:15;3.33;;;2.30;;
47713;SDS011;33475;46.614;13.888;2023-07-16T11:29:45;4.28;;;1.67;;
47713;SDS011;33475;46.614;13.888;2023-07-16T11:32:11;2.15;;;1.83;;
47713;SDS011;33475;46.614;13.888;2023-07-16T11:34:38;2.42;;;2.00;;
47713;SDS011;33475;46.614;13.888;2023-07-16T11:37:08;3.00;;;2.10;;
47713;SDS011;33475;46.614;13.888;2023-07-16T11:39:35;4.22;;;2.22;;
47713;SDS011;33475;46.614;13.888;2023-07-16T11:42:02;2.67;;;1.83;;
47713;SDS011;33475;46.614;13.888;2023-07-16T11:44:32;2.88;;;1.70;;
47713;SDS011;33475;46.614;13.888;2023-07-16T11:46:59;11.73;;;2.00;;
47713;SDS011;33475;46.614;13.888;2023-07-16T11:49:25;4.93;;;2.38;;
47713;SDS011;33475;46.614;13.888;2023-07-16T11:51:51;2.70;;;1.95;;
47713;SDS011;33475;46.614;13.888;2023-07-16T11:54:18;2.50;;;2.05;;
47713;SDS011;33475;46.614;13.888;2023-07-16T11:56:44;1.92;;;1.60;;
47713;SDS011;33475;46.614;13.888;2023-07-16T11:59:12;8.00;;;2.40;;
47713;SDS011;33475;46.614;13.888;2023-07-16T12:01:39;2.28;;;2.08;;
47713;SDS011;33475;46.614;13.888;2023-07-16T12:04:05;3.67;;;2.13;;
47713;SDS011;33475;46.614;13.888;2023-07-16T12:06:31;4.15;;;2.30;;
47713;SDS011;33475;46.614;13.888;2023-07-16T12:08:58;2.47;;;1.92;;
47713;SDS011;33475;46.614;13.888;2023-07-16T12:11:24;2.42;;;1.77;;
47713;SDS011;33475;46.614;13.888;2023-07-16T12:13:51;2.42;;;2.00;;
47713;SDS011;33475;46.614;13.888;2023-07-16T12:16:18;3.38;;;2.05;;
47713;SDS011;33475;46.614;13.888;2023-07-16T12:18:44;3.25;;;1.90;;
47713;SDS011;33475;46.614;13.888;2023-07-16T12:21:10;2.78;;;2.22;;
47713;SDS011;33475;46.614;13.888;2023-07-16T12:23:37;3.05;;;1.70;;
47713;SDS011;33475;46.614;13.888;2023-07-16T12:26:03;1.60;;;1.50;;
47713;SDS011;33475;46.614;13.888;2023-07-16T12:28:29;1.77;;;1.63;;
47713;SDS011;33475;46.614;13.888;2023-07-16T12:30:55;3.60;;;1.77;;
47713;SDS011;33475;46.614;13.888;2023-07-16T12:33:22;3.90;;;1.77;;
47713;SDS011;33475;46.614;13.888;2023-07-16T12:35:48;2.63;;;1.77;;
47713;SDS011;33475;46.614;13.888;2023-07-16T12:38:15;1.80;;;1.58;;
47713;SDS011;33475;46.614;13.888;2023-07-16T12:40:41;1.95;;;1.50;;
47713;SDS011;33475;46.614;13.888;2023-07-16T12:43:07;1.67;;;1.58;;
47713;SDS011;33475;46.614;13.888;2023-07-16T12:45:33;1.85;;;1.60;;
47713;SDS011;33475;46.614;13.888;2023-07-16T12:47:59;3.90;;;1.50;;
47713;SDS011;33475;46.614;13.888;2023-07-16T12:50:27;1.60;;;1.50;;
47713;SDS011;33475;46.614;13.888;2023-07-16T12:52:54;1.90;;;1.70;;
47713;SDS011;33475;46.614;13.888;2023-07-16T12:55:21;2.17;;;1.75;;
47713;SDS011;33475;46.614;13.888;2023-07-16T12:57:48;3.50;;;1.75;;
47713;SDS011;33475;46.614;13.888;2023-07-16T13:00:14;2.05;;;1.60;;
47713;SDS011;33475;46.614;13.888;2023-07-16T13:02:41;4.03;;;1.95;;
47713;SDS011;33475;46.614;13.888;2023-07-16T13:05:07;3.08;;;1.58;;
47713;SDS011;33475;46.614;13.888;2023-07-16T13:07:34;2.95;;;1.70;;
47713;SDS011;33475;46.614;13.888;2023-07-16T13:10:00;1.42;;;1.33;;
47713;SDS011;33475;46.614;13.888;2023-07-16T13:12:26;2.97;;;1.73;;
47713;SDS011;33475;46.614;13.888;2023-07-16T13:14:52;1.85;;;1.40;;
47713;SDS011;33475;46.614;13.888;2023-07-16T13:17:18;2.45;;;1.50;;
47713;SDS011;33475;46.614;13.888;2023-07-16T13:19:45;1.88;;;1.60;;
47713;SDS011;33475;46.614;13.888;2023-07-16T13:22:12;2.35;;;1.60;;
47713;SDS011;33475;46.614;13.888;2023-07-16T13:24:40;2.72;;;1.60;;
47713;SDS011;33475;46.614;13.888;2023-07-16T13:27:06;3.50;;;1.48;;
47713;SDS011;33475;46.614;13.888;2023-07-16T13:29:35;2.10;;;1.40;;
47713;SDS011;33475;46.614;13.888;2023-07-16T13:32:01;1.95;;;1.58;;
47713;SDS011;33475;46.614;13.888;2023-07-16T13:34:28;3.30;;;1.60;;
47713;SDS011;33475;46.614;13.888;2023-07-16T13:36:54;2.63;;;1.70;;
47713;SDS011;33475;46.614;13.888;2023-07-16T13:39:21;2.03;;;1.50;;
47713;SDS011;33475;46.614;13.888;2023-07-16T13:41:47;1.65;;;1.52;;
47713;SDS011;33475;46.614;13.888;2023-07-16T13:44:13;1.67;;;1.58;;
47713;SDS011;33475;46.614;13.888;2023-07-16T13:46:40;4.10;;;1.48;;
47713;SDS011;33475;46.614;13.888;2023-07-16T13:49:06;2.50;;;1.40;;
47713;SDS011;33475;46.614;13.888;2023-07-16T13:51:33;2.42;;;1.45;;
47713;SDS011;33475;46.614;13.888;2023-07-16T13:53:59;2.42;;;1.60;;
47713;SDS011;33475;46.614;13.888;2023-07-16T13:56:25;5.93;;;1.70;;
47713;SDS011;33475;46.614;13.888;2023-07-16T13:58:51;2.65;;;1.75;;
47713;SDS011;33475;46.614;13.888;2023-07-16T14:01:19;2.00;;;1.50;;
47713;SDS011;33475;46.614;13.888;2023-07-16T14:03:45;2.10;;;1.50;;
47713;SDS011;33475;46.614;13.888;2023-07-16T14:06:11;1.83;;;1.58;;
47713;SDS011;33475;46.614;13.888;2023-07-16T14:08:37;4.30;;;1.70;;
47713;SDS011;33475;46.614;13.888;2023-07-16T14:11:04;2.10;;;1.50;;
47713;SDS011;33475;46.614;13.888;2023-07-16T14:13:30;2.20;;;1.40;;
47713;SDS011;33475;46.614;13.888;2023-07-16T14:15:56;1.77;;;1.40;;
47713;SDS011;33475;46.614;13.888;2023-07-16T14:18:22;2.00;;;1.40;;
47713;SDS011;33475;46.614;13.888;2023-07-16T14:20:49;2.70;;;1.80;;
47713;SDS011;33475;46.614;13.888;2023-07-16T14:23:15;2.10;;;1.27;;
47713;SDS011;33475;46.614;13.888;2023-07-16T14:25:42;4.72;;;1.50;;
47713;SDS011;33475;46.614;13.888;2023-07-16T14:28:08;1.38;;;1.27;;
47713;SDS011;33475;46.614;13.888;2023-07-16T14:30:34;3.03;;;1.10;;
47713;SDS011;33475;46.614;13.888;2023-07-16T14:33:01;1.48;;;1.38;;